Time;durP1;ratioP1;P1;durP2;ratioP2;P2;SDS_P1;SDS_P2;PMS_P1;PMS_P2;Temp;Humidity;BMP_temperature;BMP_pressure;BME280_temperature;BME280_humidity;BME280_pressure;Samples;Min_cycle;Max_cycle;Signal;HPM_P1;HPM_P2
2023/01/14 00:01:36;;;;;;;6.90;1.83;;;4.30;99.90;;;;;;5089984;28;20067;-61
2023/01/14 00:04:02;;;;;;;7.75;1.33;;;4.30;99.90;;;;;;5088773;28;20465;-62
2023/01/14 00:06:33;;;;;;;7.20;1.90;;;4.40;99.90;;;;;;5088106;28;20246;-63
2023/01/14 00:09:01;;;;;;;9.70;1.60;;;4.40;99.90;;;;;;5087286;28;20032;-63
2023/01/14 00:14:14;;;;;;;11.60;2.05;;;4.50;99.90;;;;;;5081923;28;20034;-61
2023/01/14 00:16:40;;;;;;;6.70;1.83;;;4.50;99.90;;;;;;5087026;28;20636;-61
2023/01/14 00:19:07;;;;;;;5.15;1.67;;;4.50;99.90;;;;;;5087126;28;20144;-62
2023/01/14 00:21:33;;;;;;;7.97;1.80;;;4.50;99.90;;;;;;5088728;28;20400;-63
2023/01/14 00:23:58;;;;;;;5.65;1.50;;;4.50;99.90;;;;;;5079817;28;20030;-61
2023/01/14 00:26:27;;;;;;;7.80;1.80;;;4.60;99.90;;;;;;5093060;28;20062;-61
2023/01/14 00:28:53;;;;;;;8.38;2.05;;;4.60;99.90;;;;;;5066640;28;20056;-62
2023/01/14 00:31:26;;;;;;;6.75;1.60;;;4.70;99.90;;;;;;5062901;28;20036;-61
2023/01/14 00:33:53;;;;;;;8.50;1.95;;;4.70;99.90;;;;;;5064985;28;20619;-62
2023/01/14 00:36:22;;;;;;;10.43;1.58;;;4.80;99.90;;;;;;5067999;28;20041;-62
2023/01/14 00:38:49;;;;;;;8.75;1.33;;;4.80;99.90;;;;;;5064896;28;20600;-63
2023/01/14 00:41:17;;;;;;;13.60;1.90;;;4.90;99.90;;;;;;5072166;28;20032;-62
2023/01/14 00:43:46;;;;;;;12.07;1.65;;;4.90;99.90;;;;;;5066294;28;20085;-62
2023/01/14 00:46:17;;;;;;;7.57;1.60;;;4.90;99.90;;;;;;5049593;28;20033;-62
2023/01/14 00:48:42;;;;;;;8.73;1.40;;;4.90;99.90;;;;;;5065200;28;20484;-63
2023/01/14 00:51:09;;;;;;;9.52;1.80;;;4.90;99.90;;;;;;5067363;28;20037;-61
2023/01/14 00:53:36;;;;;;;5.00;1.48;;;4.90;99.90;;;;;;5067513;28;20024;-62
2023/01/14 00:56:02;;;;;;;6.50;1.33;;;5.00;99.90;;;;;;5066945;28;20036;-61
2023/01/14 00:58:28;;;;;;;12.07;1.35;;;5.10;99.90;;;;;;5067662;28;20366;-62
2023/01/14 01:00:54;;;;;;;7.22;1.20;;;5.10;99.90;;;;;;5065864;28;20082;-62
2023/01/14 01:03:21;;;;;;;9.45;1.40;;;5.10;99.90;;;;;;5049527;28;20032;-62
2023/01/14 01:05:47;;;;;;;6.07;1.50;;;5.10;99.90;;;;;;5066427;28;20128;-62
2023/01/14 01:08:17;;;;;;;15.65;1.58;;;5.10;99.90;;;;;;5071223;28;20096;-61
2023/01/14 01:10:46;;;;;;;4.63;1.20;;;5.10;99.90;;;;;;5060898;28;20030;-61
2023/01/14 01:13:13;;;;;;;4.78;0.95;;;5.20;99.90;;;;;;5064039;28;20135;-62
2023/01/14 01:15:40;;;;;;;7.20;1.05;;;5.20;99.90;;;;;;5066435;28;20028;-61
2023/01/14 01:18:07;;;;;;;8.40;1.20;;;5.20;99.90;;;;;;5069628;28;20443;-62
2023/01/14 01:20:33;;;;;;;6.78;1.33;;;5.30;99.90;;;;;;5069815;28;20052;-63
2023/01/14 01:22:59;;;;;;;8.80;1.70;;;5.20;99.90;;;;;;5070336;28;20036;-61
2023/01/14 01:25:25;;;;;;;7.80;1.60;;;5.30;99.90;;;;;;5070552;28;20029;-61
2023/01/14 01:27:52;;;;;;;11.68;1.60;;;5.10;99.90;;;;;;5089414;28;20044;-62
2023/01/14 01:30:18;;;;;;;10.63;1.40;;;5.10;99.90;;;;;;5090152;28;20038;-62
2023/01/14 01:32:45;;;;;;;8.07;1.42;;;5.20;99.90;;;;;;5090035;28;20393;-62
2023/01/14 01:35:11;;;;;;;7.35;2.03;;;5.20;99.90;;;;;;5090813;28;20133;-62
2023/01/14 01:37:37;;;;;;;5.93;1.30;;;5.20;99.90;;;;;;5088130;28;20036;-62
2023/01/14 01:40:03;;;;;;;4.65;1.08;;;5.20;99.90;;;;;;5081064;28;20526;-61
2023/01/14 01:42:33;;;;;;;5.28;1.40;;;5.10;99.90;;;;;;5089481;28;20119;-61
2023/01/14 01:45:38;;;;;;;8.35;1.50;;;5.30;99.90;;;;;;5090765;28;20145;-62
2023/01/14 01:48:07;;;;;;;11.23;1.30;;;5.20;99.90;;;;;;5085705;28;20086;-61
2023/01/14 01:50:34;;;;;;;6.55;1.20;;;5.20;99.90;;;;;;5083698;28;20024;-63
2023/01/14 01:53:01;;;;;;;8.85;1.38;;;5.30;99.90;;;;;;5090051;28;20127;-62
2023/01/14 01:55:30;;;;;;;6.90;1.40;;;5.30;99.90;;;;;;5090615;28;20028;-62
2023/01/14 01:57:56;;;;;;;5.50;1.35;;;5.30;99.90;;;;;;5095135;28;20056;-61
2023/01/14 02:00:24;;;;;;;5.95;1.60;;;5.30;99.90;;;;;;5085257;28;20110;-62
2023/01/14 02:02:55;;;;;;;7.32;1.08;;;5.40;99.90;;;;;;5085526;28;20028;-62
2023/01/14 02:05:22;;;;;;;6.65;1.17;;;5.30;99.90;;;;;;5090017;28;20024;-61
2023/01/14 02:07:47;;;;;;;12.90;1.70;;;5.30;99.90;;;;;;5089454;28;20101;-61
2023/01/14 02:10:13;;;;;;;10.32;1.17;;;5.20;99.90;;;;;;5089129;28;20032;-62
2023/01/14 02:13:33;;;;;;;6.43;1.48;;;5.20;99.90;;;;;;5088228;28;20032;-62
2023/01/14 02:16:17;;;;;;;4.53;0.82;;;5.20;99.90;;;;;;5027302;28;20044;-62
2023/01/14 02:19:03;;;;;;;12.55;1.50;;;5.10;99.90;;;;;;5090660;28;20024;-61
2023/01/14 02:21:36;;;;;;;7.40;1.35;;;5.10;99.90;;;;;;5088227;28;20078;-61
2023/01/14 02:24:30;;;;;;;4.93;1.30;;;5.10;99.90;;;;;;5089849;28;20044;-62
2023/01/14 02:27:15;;;;;;;13.50;1.48;;;5.10;99.90;;;;;;5082854;28;20043;-61
2023/01/14 02:29:49;;;;;;;4.15;1.40;;;4.90;99.90;;;;;;5089722;28;20036;-60
2023/01/14 02:32:29;;;;;;;7.32;1.20;;;4.90;99.90;;;;;;5090270;28;20047;-65
2023/01/14 02:35:13;;;;;;;9.10;1.15;;;4.90;99.90;;;;;;5065122;28;20032;-61
2023/01/14 02:37:45;;;;;;;10.23;1.80;;;4.90;99.90;;;;;;5086994;28;20032;-63
2023/01/14 02:40:20;;;;;;;8.73;1.27;;;4.90;99.90;;;;;;5084528;28;20032;-61
2023/01/14 02:46:09;;;;;;;9.52;1.40;;;4.80;99.90;;;;;;5092662;28;20066;-62
2023/01/14 02:48:36;;;;;;;6.45;1.63;;;4.80;99.90;;;;;;5086145;28;20081;-62
2023/01/14 02:51:02;;;;;;;12.15;1.58;;;4.70;99.90;;;;;;5089069;28;20028;-62
2023/01/14 02:53:28;;;;;;;6.85;1.30;;;4.70;99.90;;;;;;5090097;28;20024;-62
2023/01/14 02:55:56;;;;;;;8.52;1.55;;;4.60;99.90;;;;;;5069782;28;20472;-62
2023/01/14 02:58:25;;;;;;;11.18;1.60;;;4.60;99.90;;;;;;5088298;28;20032;-62
2023/01/14 03:01:24;;;;;;;14.38;1.42;;;4.60;99.90;;;;;;5086121;28;20035;-62
2023/01/14 03:04:10;;;;;;;7.60;1.15;;;4.60;99.90;;;;;;5087095;28;20079;-62
2023/01/14 03:06:57;;;;;;;8.13;1.10;;;4.60;99.90;;;;;;5070938;28;20077;-62
2023/01/14 03:09:42;;;;;;;7.20;1.52;;;4.50;99.90;;;;;;5077988;28;20031;-62
2023/01/14 03:12:17;;;;;;;11.82;1.20;;;4.50;99.90;;;;;;5088969;28;20035;-62
2023/01/14 03:14:51;;;;;;;12.25;1.80;;;4.50;99.90;;;;;;5083194;28;20028;-63
2023/01/14 03:17:36;;;;;;;5.30;1.20;;;4.50;99.90;;;;;;5088954;28;20028;-62
2023/01/14 03:20:17;;;;;;;5.55;1.00;;;4.50;99.90;;;;;;5090686;28;20024;-62
2023/01/14 03:22:43;;;;;;;9.45;1.20;;;4.40;99.90;;;;;;5087795;28;20557;-62
2023/01/14 03:25:11;;;;;;;7.68;1.70;;;4.40;99.90;;;;;;5088810;28;20097;-62
2023/01/14 03:27:39;;;;;;;7.85;1.60;;;4.40;99.90;;;;;;5089374;28;20044;-62
2023/01/14 03:30:11;;;;;;;8.10;1.15;;;4.40;99.90;;;;;;5081567;28;20070;-62
2023/01/14 03:32:45;;;;;;;8.38;1.13;;;4.40;99.90;;;;;;5087586;28;20035;-62
2023/01/14 03:35:24;;;;;;;11.20;1.48;;;4.30;99.90;;;;;;5088702;28;20047;-62
2023/01/14 03:38:06;;;;;;;7.95;1.00;;;4.30;99.90;;;;;;5078134;28;20052;-63
2023/01/14 03:40:34;;;;;;;9.75;1.30;;;4.30;99.90;;;;;;5086422;28;20524;-61
2023/01/14 03:43:07;;;;;;;6.30;1.00;;;4.30;99.90;;;;;;5087756;28;20066;-61
2023/01/14 03:45:36;;;;;;;8.07;1.60;;;4.30;99.90;;;;;;5088309;28;20039;-63
2023/01/14 03:48:02;;;;;;;6.00;1.38;;;4.30;99.90;;;;;;5072683;28;20023;-62
2023/01/14 03:50:36;;;;;;;10.10;1.50;;;4.30;99.90;;;;;;5084504;28;20028;-62
2023/01/14 03:53:40;;;;;;;5.65;1.10;;;4.20;99.90;;;;;;5090769;28;20100;-62
2023/01/14 03:56:22;;;;;;;14.70;1.77;;;4.30;99.90;;;;;;5078500;28;20044;-61
2023/01/14 03:58:53;;;;;;;9.02;1.30;;;4.20;99.90;;;;;;5084976;28;20060;-62
2023/01/14 04:01:34;;;;;;;8.57;1.40;;;4.20;99.90;;;;;;5081204;28;20035;-62
2023/01/14 04:04:01;;;;;;;8.32;1.13;;;4.10;99.90;;;;;;5086071;28;20524;-62
2023/01/14 04:06:28;;;;;;;7.82;1.17;;;4.20;99.90;;;;;;5088656;28;20047;-61
2023/01/14 04:08:54;;;;;;;14.10;1.60;;;4.20;99.90;;;;;;5085244;28;20162;-62
2023/01/14 04:11:19;;;;;;;6.78;1.30;;;4.20;99.90;;;;;;5088106;28;20518;-61
2023/01/14 04:16:29;;;;;;;12.57;1.10;;;4.20;99.90;;;;;;5094140;28;20578;-62
2023/01/14 04:18:54;;;;;;;9.50;0.90;;;4.20;99.90;;;;;;5087189;28;20024;-62
2023/01/14 04:21:20;;;;;;;7.07;1.45;;;4.20;99.90;;;;;;5086610;28;20032;-60
2023/01/14 04:23:46;;;;;;;9.60;1.35;;;4.10;99.90;;;;;;5087341;28;20044;-61
2023/01/14 04:26:11;;;;;;;9.60;1.38;;;4.00;99.90;;;;;;5087061;28;20032;-63
2023/01/14 04:28:37;;;;;;;6.63;1.23;;;4.00;99.90;;;;;;5086211;28;20493;-62
2023/01/14 04:31:02;;;;;;;6.28;0.95;;;3.90;99.90;;;;;;5087072;28;20030;-62
2023/01/14 04:33:28;;;;;;;8.68;1.20;;;3.90;99.90;;;;;;5082558;28;20036;-61
2023/01/14 04:35:54;;;;;;;4.50;1.27;;;3.80;99.90;;;;;;5086324;28;20103;-62
2023/01/14 04:38:20;;;;;;;6.32;1.30;;;3.80;99.90;;;;;;5055089;28;20028;-61
2023/01/14 04:40:54;;;;;;;5.68;1.20;;;3.80;99.90;;;;;;5076979;28;20054;-64
2023/01/14 04:43:21;;;;;;;5.05;1.15;;;3.70;99.90;;;;;;5078162;28;20051;-62
2023/01/14 04:45:53;;;;;;;6.53;1.17;;;3.70;99.90;;;;;;5078327;28;20846;-63
2023/01/14 04:48:20;;;;;;;5.18;0.82;;;3.70;99.90;;;;;;5078809;28;20563;-61
2023/01/14 04:50:47;;;;;;;6.90;1.10;;;3.70;99.90;;;;;;5090314;28;20028;-62
2023/01/14 04:53:15;;;;;;;4.80;1.00;;;3.70;99.90;;;;;;5088912;28;20042;-62
2023/01/14 04:55:42;;;;;;;8.50;1.38;;;3.70;99.90;;;;;;5090157;28;20051;-62
2023/01/14 04:58:10;;;;;;;7.25;1.30;;;3.70;99.90;;;;;;5093022;28;20119;-62
2023/01/14 05:00:37;;;;;;;9.32;1.10;;;3.70;99.90;;;;;;5090028;28;20028;-62
2023/01/14 05:03:04;;;;;;;7.60;1.20;;;3.70;99.90;;;;;;5089350;28;20910;-61
2023/01/14 05:05:30;;;;;;;7.60;1.60;;;3.60;99.90;;;;;;5091347;28;20031;-62
2023/01/14 05:07:57;;;;;;;4.18;1.20;;;3.60;99.90;;;;;;5089284;28;20032;-62
2023/01/14 05:10:22;;;;;;;5.60;0.88;;;3.50;99.90;;;;;;5092046;28;20050;-60
2023/01/14 05:12:57;;;;;;;10.85;1.40;;;3.40;99.90;;;;;;5091315;28;20469;-63
2023/01/14 05:15:42;;;;;;;11.30;1.55;;;3.40;99.90;;;;;;5082555;28;20028;-63
2023/01/14 05:18:10;;;;;;;4.30;1.60;;;3.40;99.90;;;;;;5088928;28;20024;-62
2023/01/14 05:20:36;;;;;;;3.67;0.80;;;3.40;99.90;;;;;;5091091;28;20028;-62
2023/01/14 05:23:09;;;;;;;5.43;1.40;;;3.50;99.90;;;;;;5090274;28;20044;-62
2023/01/14 05:25:35;;;;;;;6.78;1.02;;;3.50;99.90;;;;;;5082937;28;20039;-60
2023/01/14 05:28:03;;;;;;;7.88;1.58;;;3.50;99.90;;;;;;5085317;28;20059;-62
2023/01/14 05:30:29;;;;;;;6.47;1.30;;;3.40;99.90;;;;;;5089723;28;20032;-62
2023/01/14 05:32:55;;;;;;;4.63;0.80;;;3.30;99.90;;;;;;5090233;28;20051;-61
2023/01/14 05:35:21;;;;;;;7.88;1.23;;;3.20;99.90;;;;;;5090038;28;20028;-63
2023/01/14 05:37:46;;;;;;;13.13;1.38;;;3.20;99.90;;;;;;5068825;28;20036;-61
2023/01/14 05:40:12;;;;;;;7.95;1.20;;;3.20;99.90;;;;;;5080717;28;20028;-61
2023/01/14 05:48:07;;;;;;;6.10;1.58;;;3.20;99.90;;;;;;5079364;28;20089;-62
2023/01/14 05:50:33;;;;;;;9.88;1.30;;;3.20;99.90;;;;;;5084190;28;20021;-63
2023/01/14 05:52:59;;;;;;;8.77;1.50;;;3.30;99.90;;;;;;5069944;28;20040;-61
2023/01/14 05:55:24;;;;;;;10.85;1.55;;;3.30;99.90;;;;;;5089320;28;20035;-62
2023/01/14 05:57:50;;;;;;;17.15;6.95;;;3.20;99.90;;;;;;5087770;28;20024;-63
2023/01/14 06:08:29;;;;;;;11.35;1.70;;;3.00;99.90;;;;;;5079667;28;20067;-62
2023/01/14 06:10:55;;;;;;;12.77;2.85;;;3.00;99.90;;;;;;5083981;28;20059;-62
2023/01/14 06:13:24;;;;;;;10.38;1.60;;;3.00;99.90;;;;;;5090122;28;20127;-62
2023/01/14 06:15:55;;;;;;;7.80;1.98;;;3.00;99.90;;;;;;5087887;28;20035;-63
2023/01/14 06:18:22;;;;;;;11.15;2.60;;;3.10;99.90;;;;;;5088772;28;20059;-62
2023/01/14 06:20:53;;;;;;;9.68;2.50;;;3.10;99.90;;;;;;5087983;28;20247;-63
2023/01/14 06:23:20;;;;;;;;;;;3.10;99.90;;;;;;5091055;28;20047;-62
2023/01/14 06:25:47;;;;;;;7.85;2.35;;;3.10;99.90;;;;;;5085299;28;19922;-62
2023/01/14 06:28:13;;;;;;;15.38;5.00;;;3.10;99.90;;;;;;5082147;28;20048;-63
2023/01/14 06:30:39;;;;;;;35.22;13.05;;;3.10;99.90;;;;;;5087396;28;20436;-62
2023/01/14 06:33:06;;;;;;;19.58;6.85;;;3.10;99.90;;;;;;5089310;28;20438;-62
2023/01/14 06:35:32;;;;;;;12.27;5.35;;;2.90;99.90;;;;;;5085509;28;20036;-61
2023/01/14 06:37:58;;;;;;;21.25;5.38;;;2.90;99.90;;;;;;5084473;28;20077;-61
2023/01/14 06:40:23;;;;;;;17.75;4.68;;;2.90;99.90;;;;;;5089829;28;20400;-61
2023/01/14 06:42:53;;;;;;;81.72;20.27;;;2.90;99.90;;;;;;5088098;28;20028;-63
2023/01/14 06:45:19;;;;;;;34.97;10.25;;;2.90;99.90;;;;;;5085765;28;20039;-61
2023/01/14 06:47:44;;;;;;;20.85;6.50;;;2.90;99.90;;;;;;5088310;28;20029;-62
2023/01/14 06:50:10;;;;;;;18.45;4.43;;;2.90;99.90;;;;;;5085324;28;20107;-62
2023/01/14 06:52:36;;;;;;;14.43;3.83;;;2.90;99.90;;;;;;5087825;28;20024;-63
2023/01/14 06:55:02;;;;;;;12.00;3.05;;;2.90;99.90;;;;;;5084714;28;20043;-63
2023/01/14 06:57:27;;;;;;;9.07;3.15;;;2.90;99.90;;;;;;5084365;28;20043;-61
2023/01/14 06:59:53;;;;;;;10.25;2.50;;;2.90;99.90;;;;;;5084270;28;20118;-63
2023/01/14 07:02:19;;;;;;;10.20;2.20;;;2.90;99.90;;;;;;5081588;28;20032;-62
2023/01/14 07:04:45;;;;;;;15.30;2.10;;;3.00;99.90;;;;;;5083141;28;20048;-62
2023/01/14 07:07:10;;;;;;;9.48;1.95;;;2.90;99.90;;;;;;5088223;28;20024;-61
2023/01/14 07:09:36;;;;;;;6.50;2.08;;;2.90;99.90;;;;;;5092915;28;20067;-62
2023/01/14 07:12:02;;;;;;;13.00;2.60;;;2.80;99.90;;;;;;5083500;28;20517;-62
2023/01/14 07:14:28;;;;;;;10.75;2.28;;;2.80;99.90;;;;;;5087262;28;20028;-61
2023/01/14 07:16:54;;;;;;;13.43;2.22;;;2.80;99.90;;;;;;5073999;28;20033;-62
2023/01/14 07:19:19;;;;;;;9.80;2.13;;;2.70;99.90;;;;;;5088025;28;20122;-61
2023/01/14 07:21:45;;;;;;;9.07;2.67;;;2.70;99.90;;;;;;5082284;28;20081;-62
2023/01/14 07:24:11;;;;;;;10.68;3.15;;;2.70;99.90;;;;;;5075704;28;20037;-62
2023/01/14 07:26:37;;;;;;;10.55;3.40;;;2.70;99.90;;;;;;5078624;28;20031;-62
2023/01/14 07:29:02;;;;;;;11.23;2.92;;;2.70;99.90;;;;;;5088129;28;20040;-61
2023/01/14 07:31:29;;;;;;;15.27;4.88;;;2.70;99.90;;;;;;5086091;28;20111;-60
2023/01/14 07:33:54;;;;;;;12.25;3.47;;;2.70;99.90;;;;;;5081200;28;20032;-62
2023/01/14 07:36:20;;;;;;;14.55;4.55;;;2.60;99.90;;;;;;5082697;28;20020;-62
2023/01/14 07:38:46;;;;;;;19.83;5.65;;;2.70;99.90;;;;;;5080680;28;20407;-62
2023/01/14 07:41:17;;;;;;;16.92;5.85;;;2.70;99.90;;;;;;5087043;28;20043;-62
2023/01/14 07:43:46;;;;;;;15.93;6.38;;;2.60;99.90;;;;;;5060517;28;20027;-62
2023/01/14 07:46:12;;;;;;;10.80;3.92;;;2.60;99.90;;;;;;5075922;28;20670;-61
2023/01/14 07:48:38;;;;;;;14.88;4.20;;;2.70;99.90;;;;;;5081399;28;20032;-62
2023/01/14 07:51:05;;;;;;;20.10;4.65;;;2.90;99.90;;;;;;5068530;28;20028;-62
2023/01/14 07:53:31;;;;;;;19.63;5.45;;;3.00;99.90;;;;;;5081854;28;20020;-62
2023/01/14 07:56:06;;;;;;;200.93;61.40;;;3.10;99.90;;;;;;5084413;28;20405;-61
2023/01/14 07:58:33;;;;;;;119.00;37.67;;;3.20;99.90;;;;;;5063690;28;20042;-60
2023/01/14 08:01:04;;;;;;;83.03;29.02;;;3.30;99.90;;;;;;5085000;28;20039;-61
2023/01/14 08:03:30;;;;;;;42.03;13.70;;;3.40;99.90;;;;;;5087347;28;20468;-60
2023/01/14 08:05:59;;;;;;;28.75;8.50;;;3.50;99.90;;;;;;5078946;28;20039;-62
2023/01/14 08:08:25;;;;;;;27.60;8.07;;;3.70;99.90;;;;;;5084012;28;20028;-62
2023/01/14 08:10:51;;;;;;;21.17;6.95;;;3.80;99.90;;;;;;5082971;28;20073;-60
2023/01/14 08:13:16;;;;;;;14.55;3.70;;;3.80;99.90;;;;;;5067826;28;20066;-62
2023/01/14 08:15:42;;;;;;;14.00;2.55;;;3.70;99.90;;;;;;5078333;28;20085;-62
2023/01/14 08:18:08;;;;;;;14.07;3.15;;;3.80;99.90;;;;;;5084530;28;20033;-61
2023/01/14 08:20:33;;;;;;;14.18;2.38;;;3.90;99.90;;;;;;5080753;28;20036;-62
2023/01/14 08:22:59;;;;;;;10.30;2.03;;;4.00;99.90;;;;;;5082526;28;20539;-62
2023/01/14 08:25:27;;;;;;;19.08;2.00;;;4.10;99.90;;;;;;5082750;28;20043;-60
2023/01/14 08:27:53;;;;;;;10.82;1.77;;;4.20;99.90;;;;;;5090539;28;20516;-60
2023/01/14 08:30:19;;;;;;;10.68;1.70;;;4.30;99.90;;;;;;5091235;28;20810;-60
2023/01/14 08:32:47;;;;;;;7.82;2.85;;;4.40;99.90;;;;;;5092289;28;20028;-64
2023/01/14 08:35:12;;;;;;;13.93;3.03;;;4.40;99.90;;;;;;5091780;28;20033;-61
2023/01/14 08:37:40;;;;;;;7.47;2.80;;;4.50;99.90;;;;;;5091886;28;20058;-61
2023/01/14 08:40:06;;;;;;;18.95;4.50;;;4.60;99.90;;;;;;5091346;28;20381;-59
2023/01/14 08:42:31;;;;;;;17.92;4.60;;;4.60;99.90;;;;;;5093707;28;20032;-60
2023/01/14 08:44:57;;;;;;;14.98;4.70;;;4.70;99.90;;;;;;5091765;28;20043;-62
2023/01/14 08:47:23;;;;;;;14.75;3.70;;;4.80;99.90;;;;;;5091504;28;20036;-61
2023/01/14 08:49:48;;;;;;;17.90;5.15;;;4.90;99.90;;;;;;5091818;28;20468;-62
2023/01/14 08:52:14;;;;;;;15.93;3.88;;;4.90;99.90;;;;;;5090767;28;20115;-62
2023/01/14 08:54:39;;;;;;;14.02;2.85;;;4.90;99.90;;;;;;5091714;28;20068;-62
2023/01/14 08:57:05;;;;;;;21.45;2.60;;;5.00;99.90;;;;;;5090300;28;20452;-61
2023/01/14 08:59:31;;;;;;;8.63;1.80;;;5.10;99.90;;;;;;5091555;28;20039;-61
2023/01/14 09:01:56;;;;;;;11.15;2.15;;;5.30;99.90;;;;;;5091473;28;20170;-62
2023/01/14 09:04:24;;;;;;;13.15;2.70;;;5.40;99.90;;;;;;5085712;28;20449;-63
2023/01/14 09:17:57;;;;;;;4.75;2.25;;;5.90;99.90;;;;;;5091524;28;20030;-62
2023/01/14 09:20:30;;;;;;;12.35;2.20;;;5.90;99.90;;;;;;5085633;28;20032;-62
2023/01/14 09:22:55;;;;;;;8.57;1.70;;;6.00;99.90;;;;;;5094822;28;20048;-60
2023/01/14 09:25:21;;;;;;;7.30;1.50;;;6.10;99.90;;;;;;5082092;28;20022;-60
2023/01/14 09:27:47;;;;;;;8.75;1.55;;;6.10;99.90;;;;;;5086456;28;20051;-60
2023/01/14 09:30:12;;;;;;;9.10;1.38;;;6.20;99.90;;;;;;5085491;28;20044;-61
2023/01/14 09:32:40;;;;;;;7.93;1.10;;;6.20;99.90;;;;;;5090213;28;20038;-60
2023/01/14 09:35:07;;;;;;;12.15;2.20;;;6.30;99.90;;;;;;5079756;28;20371;-61
2023/01/14 09:37:33;;;;;;;10.60;3.13;;;6.40;99.90;;;;;;5076995;28;20032;-60
2023/01/14 09:40:00;;;;;;;9.93;2.70;;;6.50;99.90;;;;;;5079533;28;20143;-61
2023/01/14 09:42:36;;;;;;;8.02;1.90;;;6.50;99.90;;;;;;5080843;28;20094;-60
2023/01/14 09:45:15;;;;;;;6.50;1.92;;;6.50;99.90;;;;;;5081647;28;20028;-63
2023/01/14 09:47:43;;;;;;;11.40;1.65;;;6.60;99.90;;;;;;5081461;28;20055;-60
2023/01/14 09:50:15;;;;;;;5.72;1.40;;;6.70;99.90;;;;;;5089513;28;20508;-62
2023/01/14 09:52:53;;;;;;;4.93;1.80;;;6.80;99.90;;;;;;5087166;28;20122;-62
2023/01/14 09:55:24;;;;;;;7.55;1.92;;;6.90;99.90;;;;;;5080950;28;20063;-62
2023/01/14 09:58:01;;;;;;;6.75;1.00;;;6.90;99.90;;;;;;5085196;28;20432;-61
2023/01/14 10:00:46;;;;;;;4.45;1.10;;;7.00;99.90;;;;;;5083895;28;20040;-62
2023/01/14 10:03:40;;;;;;;9.93;1.90;;;7.10;99.90;;;;;;5080354;28;20657;-61
2023/01/14 10:06:17;;;;;;;10.82;1.70;;;7.10;99.90;;;;;;5085968;28;20115;-63
2023/01/14 10:09:10;;;;;;;4.93;1.15;;;7.10;99.90;;;;;;5078281;28;20162;-61
2023/01/14 10:11:42;;;;;;;4.97;1.02;;;7.30;99.90;;;;;;5086225;28;20039;-61
2023/01/14 10:14:14;;;;;;;5.53;1.08;;;7.40;99.90;;;;;;5086355;28;20028;-62
2023/01/14 10:16:42;;;;;;;3.63;1.00;;;7.40;99.90;;;;;;5084566;28;20024;-62
2023/01/14 10:19:34;;;;;;;4.93;1.17;;;7.40;99.90;;;;;;5085045;28;20302;-62
2023/01/14 10:22:03;;;;;;;5.82;1.08;;;7.50;99.90;;;;;;5085252;28;20089;-61
2023/01/14 10:24:29;;;;;;;4.28;1.10;;;7.50;99.90;;;;;;5079254;28;20111;-59
2023/01/14 10:26:56;;;;;;;3.40;0.88;;;7.60;99.90;;;;;;5089732;28;20032;-61
2023/01/14 10:29:24;;;;;;;6.88;0.90;;;7.60;99.90;;;;;;5085532;28;20101;-60
2023/01/14 10:31:57;;;;;;;9.73;1.02;;;7.60;99.90;;;;;;5091938;28;20054;-62
2023/01/14 10:34:41;;;;;;;5.35;0.70;;;7.60;99.90;;;;;;5079404;28;20105;-61
2023/01/14 10:37:07;;;;;;;5.47;0.88;;;7.70;99.90;;;;;;5092877;28;20040;-63
2023/01/14 10:39:33;;;;;;;6.65;0.82;;;7.70;99.90;;;;;;5089979;28;20020;-61
2023/01/14 10:42:00;;;;;;;5.10;0.68;;;7.80;99.90;;;;;;5081458;28;20037;-60
2023/01/14 10:44:38;;;;;;;3.92;1.08;;;7.80;99.90;;;;;;5083408;28;20035;-61
2023/01/14 10:47:06;;;;;;;2.17;0.57;;;7.90;99.90;;;;;;5086343;28;20028;-61
2023/01/14 10:49:51;;;;;;;6.53;0.80;;;8.00;99.90;;;;;;5089256;28;20024;-61
2023/01/14 10:52:27;;;;;;;5.40;0.85;;;8.10;99.90;;;;;;5083166;28;20385;-61
2023/01/14 10:54:58;;;;;;;7.47;1.38;;;8.20;99.90;;;;;;5089616;28;20038;-62
2023/01/14 10:57:25;;;;;;;2.75;0.77;;;8.30;99.90;;;;;;5084602;28;20050;-61
2023/01/14 10:59:56;;;;;;;3.58;1.05;;;8.40;99.90;;;;;;5085443;28;20024;-60
2023/01/14 11:02:38;;;;;;;3.53;0.90;;;8.40;99.90;;;;;;5087193;28;20070;-61
2023/01/14 11:05:25;;;;;;;7.38;1.00;;;8.50;99.90;;;;;;5077136;28;20036;-61
2023/01/14 11:07:53;;;;;;;3.47;0.80;;;8.50;99.90;;;;;;5057582;28;20055;-61
2023/01/14 11:10:24;;;;;;;4.55;1.35;;;8.50;99.90;;;;;;5081523;28;20037;-61
2023/01/14 11:12:53;;;;;;;7.22;0.70;;;8.50;99.90;;;;;;5080162;28;20052;-62
2023/01/14 11:15:48;;;;;;;5.20;0.90;;;8.50;99.90;;;;;;5078727;28;20032;-60
2023/01/14 11:18:32;;;;;;;5.43;0.88;;;8.50;99.90;;;;;;5056559;28;20051;-61
2023/01/14 11:21:15;;;;;;;5.03;0.95;;;8.50;99.90;;;;;;5078177;28;20393;-61
2023/01/14 11:23:44;;;;;;;3.55;0.95;;;8.50;99.90;;;;;;5082992;28;20025;-61
2023/01/14 11:26:20;;;;;;;5.78;0.90;;;8.60;99.90;;;;;;5082707;28;20083;-62
2023/01/14 11:28:48;;;;;;;4.05;0.93;;;8.60;99.90;;;;;;5082012;28;20111;-62
2023/01/14 11:31:15;;;;;;;4.40;1.02;;;8.70;99.90;;;;;;5076712;28;20098;-62
2023/01/14 11:33:50;;;;;;;3.75;0.55;;;8.70;99.90;;;;;;5084118;28;20031;-62
2023/01/14 11:36:24;;;;;;;8.40;1.33;;;8.70;99.90;;;;;;5082543;28;20035;-61
2023/01/14 11:38:51;;;;;;;7.47;1.10;;;8.80;99.90;;;;;;5077086;28;20036;-62
2023/01/14 11:41:36;;;;;;;3.40;0.75;;;8.80;99.90;;;;;;5082667;28;20028;-61
2023/01/14 11:44:21;;;;;;;6.40;0.75;;;8.90;99.90;;;;;;5089178;28;20471;-61
2023/01/14 11:47:14;;;;;;;2.38;0.68;;;8.90;99.90;;;;;;5092640;28;20089;-61
2023/01/14 11:49:41;;;;;;;2.58;0.50;;;8.90;99.90;;;;;;5082107;28;20608;-61
2023/01/14 11:52:19;;;;;;;3.78;0.70;;;8.90;99.90;;;;;;5078724;28;20378;-62
2023/01/14 11:54:47;;;;;;;3.35;0.50;;;8.90;99.90;;;;;;5077414;28;20710;-61
2023/01/14 11:57:15;;;;;;;2.78;0.70;;;8.90;99.90;;;;;;5083674;28;20532;-62
2023/01/14 11:59:42;;;;;;;4.60;0.80;;;8.90;99.90;;;;;;5080604;28;20063;-61
2023/01/14 12:02:28;;;;;;;3.17;0.45;;;8.90;99.90;;;;;;5072304;28;20039;-62
2023/01/14 12:05:16;;;;;;;2.53;0.50;;;8.90;99.90;;;;;;5080178;28;20778;-60
2023/01/14 12:07:50;;;;;;;3.97;0.63;;;8.90;99.90;;;;;;5075420;28;20032;-61
2023/01/14 12:10:30;;;;;;;3.80;0.43;;;8.90;99.90;;;;;;5079568;28;20023;-61
2023/01/14 12:18:37;;;;;;;2.85;0.70;;;8.90;99.90;;;;;;5081020;28;20055;-63
2023/01/14 12:21:06;;;;;;;1.83;0.50;;;9.00;99.90;;;;;;5074979;28;20028;-64
2023/01/14 12:23:42;;;;;;;2.92;0.55;;;9.00;99.90;;;;;;5081857;28;20039;-64
2023/01/14 12:26:25;;;;;;;1.77;0.55;;;9.10;99.90;;;;;;5086855;28;20039;-65
2023/01/14 12:28:58;;;;;;;2.47;0.38;;;9.10;99.90;;;;;;5080956;28;20799;-64
2023/01/14 12:31:33;;;;;;;3.63;0.80;;;9.10;99.90;;;;;;5076887;28;20081;-64
2023/01/14 12:34:22;;;;;;;4.65;0.75;;;9.10;99.90;;;;;;5071990;28;20039;-64
2023/01/14 12:37:17;;;;;;;3.55;0.60;;;9.10;99.90;;;;;;5070155;28;20071;-62
2023/01/14 12:45:41;;;;;;;3.25;0.80;;;9.10;99.90;;;;;;5078697;28;20027;-64
2023/01/14 12:45:59;;;;;;;2.90;0.52;;;9.10;99.90;;;;;;5084120;28;20048;-62
2023/01/14 12:48:26;;;;;;;3.50;0.77;;;9.00;99.90;;;;;;5083625;28;20032;-64
2023/01/14 12:51:01;;;;;;;6.22;0.82;;;9.00;99.90;;;;;;5084371;28;20046;-64
2023/01/14 12:53:32;;;;;;;5.40;1.20;;;9.00;99.90;;;;;;5082669;28;20710;-64
2023/01/14 12:56:06;;;;;;;3.20;0.70;;;9.00;99.90;;;;;;5080342;28;20024;-65
2023/01/14 12:58:36;;;;;;;4.35;0.90;;;9.00;99.90;;;;;;5085558;28;20055;-63
2023/01/14 13:01:08;;;;;;;7.93;0.80;;;9.00;99.90;;;;;;5087940;28;20074;-64
2023/01/14 13:03:39;;;;;;;5.03;0.60;;;8.90;99.90;;;;;;5071968;28;20059;-64
2023/01/14 13:06:13;;;;;;;;;;;8.90;99.90;;;;;;5057446;28;20036;-64
2023/01/14 13:08:40;;;;;;;3.35;0.75;;;8.90;99.90;;;;;;5079484;28;19912;-64
2023/01/14 13:11:16;;;;;;;5.40;1.00;;;8.90;99.90;;;;;;5083960;28;20400;-64
2023/01/14 13:13:42;;;;;;;4.32;0.90;;;8.80;99.90;;;;;;5090139;28;20028;-64
2023/01/14 13:16:35;;;;;;;3.70;1.00;;;8.80;99.90;;;;;;5091578;28;20039;-62
2023/01/14 13:19:21;;;;;;;3.33;0.65;;;8.80;99.90;;;;;;5085590;28;20029;-64
2023/01/14 13:22:09;;;;;;;5.15;1.10;;;8.80;99.90;;;;;;5079854;28;20039;-65
2023/01/14 13:24:36;;;;;;;5.57;1.20;;;8.80;99.90;;;;;;5080186;28;20050;-64
2023/01/14 13:27:24;;;;;;;3.65;0.82;;;8.70;99.90;;;;;;5074294;28;20053;-63
2023/01/14 13:30:19;;;;;;;6.88;1.00;;;8.70;99.90;;;;;;5072938;28;20064;-64
2023/01/14 13:33:04;;;;;;;4.18;1.10;;;8.70;99.90;;;;;;5078712;28;20050;-63
2023/01/14 13:35:35;;;;;;;4.65;0.95;;;8.70;99.90;;;;;;5087668;28;20123;-63
2023/01/14 13:38:01;;;;;;;;;;;8.70;99.90;;;;;;5084570;28;20032;-63
2023/01/14 13:40:32;;;;;;;12.32;1.25;;;8.70;99.90;;;;;;5081279;28;19919;-64
2023/01/14 13:43:03;;;;;;;;;;;8.70;99.90;;;;;;5081137;28;20039;-63
2023/01/14 13:45:31;;;;;;;4.72;0.98;;;8.70;99.90;;;;;;5092149;28;20244;-63
2023/01/14 13:48:06;;;;;;;5.07;0.95;;;8.80;99.90;;;;;;5082861;28;20162;-62
2023/01/14 13:50:33;;;;;;;6.10;0.88;;;8.70;99.90;;;;;;5077951;28;20020;-63
2023/01/14 13:53:17;;;;;;;8.40;1.10;;;8.70;99.90;;;;;;5080787;28;20047;-63
2023/01/14 13:55:54;;;;;;;10.10;1.25;;;8.70;99.90;;;;;;5075272;28;20024;-63
2023/01/14 13:58:31;;;;;;;8.48;1.23;;;8.70;99.90;;;;;;5075350;28;20029;-64